sensor_id;sensor_type;location;lat;lon;timestamp;pressure;altitude;pressure_sealevel;temperature;humidity
47374;BME280;33123;50.118;10.272;2023-03-01T00:00:00;98696.66;;;1.23;55.76
47374;BME280;33123;50.118;10.272;2023-03-01T00:02:28;98475.19;;;-0.16;55.86
47374;BME280;33123;50.118;10.272;2023-03-01T00:04:56;98658.97;;;1.02;55.95
47374;BME280;33123;50.118;10.272;2023-03-01T00:07:23;98697.78;;;1.28;55.76
47374;BME280;33123;50.118;10.272;2023-03-01T00:09:50;98683.97;;;1.20;56.29
47374;BME280;33123;50.118;10.272;2023-03-01T00:12:16;98696.31;;;1.26;56.31
47374;BME280;33123;50.118;10.272;2023-03-01T00:14:43;98688.88;;;1.23;56.42
47374;BME280;33123;50.118;10.272;2023-03-01T00:17:10;98688.06;;;1.22;56.51
47374;BME280;33123;50.118;10.272;2023-03-01T00:19:36;98701.84;;;1.23;56.55
47374;BME280;33123;50.118;10.272;2023-03-01T00:22:04;98689.81;;;1.22;55.89
47374;BME280;33123;50.118;10.272;2023-03-01T00:24:31;98686.56;;;1.20;56.26
47374;BME280;33123;50.118;10.272;2023-03-01T00:26:58;98684.31;;;1.17;56.07
47374;BME280;33123;50.118;10.272;2023-03-01T00:29:25;98676.66;;;1.15;56.35
47374;BME280;33123;50.118;10.272;2023-03-01T00:31:51;98673.44;;;1.13;56.63
47374;BME280;33123;50.118;10.272;2023-03-01T00:34:18;98669.84;;;1.14;56.64
47374;BME280;33123;50.118;10.272;2023-03-01T00:36:45;98671.66;;;1.14;56.46
47374;BME280;33123;50.118;10.272;2023-03-01T00:39:14;98665.47;;;1.15;57.00
47374;BME280;33123;50.118;10.272;2023-03-01T00:41:41;98671.47;;;1.15;56.03
47374;BME280;33123;50.118;10.272;2023-03-01T00:44:08;98618.41;;;0.77;56.26
47374;BME280;33123;50.118;10.272;2023-03-01T00:46:35;98673.75;;;1.18;56.18
47374;BME280;33123;50.118;10.272;2023-03-01T00:49:01;98671.16;;;1.18;56.18
47374;BME280;33123;50.118;10.272;2023-03-01T00:51:30;98668.41;;;1.20;56.66
47374;BME280;33123;50.118;10.272;2023-03-01T00:54:01;98631.56;;;1.00;56.43
47374;BME280;33123;50.118;10.272;2023-03-01T00:56:30;98662.22;;;1.21;56.51
47374;BME280;33123;50.118;10.272;2023-03-01T00:58:57;98659.63;;;1.21;56.22
47374;BME280;33123;50.118;10.272;2023-03-01T01:01:25;98653.63;;;1.20;56.91
47374;BME280;33123;50.118;10.272;2023-03-01T01:03:54;98656.41;;;1.19;56.45
47374;BME280;33123;50.118;10.272;2023-03-01T01:06:23;98653.81;;;1.19;56.79
47374;BME280;33123;50.118;10.272;2023-03-01T01:08:51;98623.63;;;1.01;56.74
47374;BME280;33123;50.118;10.272;2023-03-01T01:11:19;98613.22;;;0.93;57.08
47374;BME280;33123;50.118;10.272;2023-03-01T01:13:48;98642.59;;;1.18;57.02
47374;BME280;33123;50.118;10.272;2023-03-01T01:16:17;98652.50;;;1.23;57.22
47374;BME280;33123;50.118;10.272;2023-03-01T01:18:44;98654.13;;;1.24;56.37
47374;BME280;33123;50.118;10.272;2023-03-01T01:21:13;98646.97;;;1.26;56.56
47374;BME280;33123;50.118;10.272;2023-03-01T01:23:40;98649.56;;;1.26;56.77
47374;BME280;33123;50.118;10.272;2023-03-01T01:26:10;98641.78;;;1.26;56.56
47374;BME280;33123;50.118;10.272;2023-03-01T01:28:37;98634.97;;;1.25;56.54
47374;BME280;33123;50.118;10.272;2023-03-01T01:31:05;98636.41;;;1.27;56.70
47374;BME280;33123;50.118;10.272;2023-03-01T01:33:32;98634.31;;;1.31;56.07
47374;BME280;33123;50.118;10.272;2023-03-01T01:35:59;98633.34;;;1.32;56.62
47374;BME280;33123;50.118;10.272;2023-03-01T01:38:26;98627.03;;;1.35;56.28
47374;BME280;33123;50.118;10.272;2023-03-01T01:40:52;98623.44;;;1.36;56.67
47374;BME280;33123;50.118;10.272;2023-03-01T01:43:21;98618.06;;;1.37;56.28
47374;BME280;33123;50.118;10.272;2023-03-01T01:45:52;98620.22;;;1.34;56.11
47374;BME280;33123;50.118;10.272;2023-03-01T01:48:24;98617.44;;;1.35;56.09
47374;BME280;33123;50.118;10.272;2023-03-01T01:51:07;98608.34;;;1.39;55.95
47374;BME280;33123;50.118;10.272;2023-03-01T01:53:36;98598.91;;;1.38;56.11
47374;BME280;33123;50.118;10.272;2023-03-01T01:56:06;98598.09;;;1.38;55.90
47374;BME280;33123;50.118;10.272;2023-03-01T01:58:35;98604.09;;;1.38;56.24
47374;BME280;33123;50.118;10.272;2023-03-01T02:01:03;98600.06;;;1.36;56.40
47374;BME280;33123;50.118;10.272;2023-03-01T02:03:33;98585.97;;;1.30;56.30
47374;BME280;33123;50.118;10.272;2023-03-01T02:06:04;98591.28;;;1.37;55.75
47374;BME280;33123;50.118;10.272;2023-03-01T02:08:35;98568.75;;;1.21;56.40
47374;BME280;33123;50.118;10.272;2023-03-01T02:11:03;98596.00;;;1.33;56.38
47374;BME280;33123;50.118;10.272;2023-03-01T02:13:30;98586.28;;;1.27;56.43
47374;BME280;33123;50.118;10.272;2023-03-01T02:15:57;98585.78;;;1.31;56.37
47374;BME280;33123;50.118;10.272;2023-03-01T02:18:26;98587.91;;;1.28;56.09
47374;BME280;33123;50.118;10.272;2023-03-01T02:21:05;98584.66;;;1.26;55.91
47374;BME280;33123;50.118;10.272;2023-03-01T02:23:33;98581.56;;;1.30;56.28
47374;BME280;33123;50.118;10.272;2023-03-01T02:26:05;98575.41;;;1.31;56.30
47374;BME280;33123;50.118;10.272;2023-03-01T02:28:35;98571.66;;;1.34;56.20
47374;BME280;33123;50.118;10.272;2023-03-01T02:31:05;98564.03;;;1.32;55.71
47374;BME280;33123;50.118;10.272;2023-03-01T02:33:51;98564.38;;;1.29;56.26
47374;BME280;33123;50.118;10.272;2023-03-01T02:36:20;98555.09;;;1.27;56.17
47374;BME280;33123;50.118;10.272;2023-03-01T02:38:50;98565.19;;;1.30;55.86
47374;BME280;33123;50.118;10.272;2023-03-01T02:41:19;98560.78;;;1.30;55.45
47374;BME280;33123;50.118;10.272;2023-03-01T02:43:48;98565.19;;;1.30;55.63
47374;BME280;33123;50.118;10.272;2023-03-01T02:46:16;98565.19;;;1.30;56.22
47374;BME280;33123;50.118;10.272;2023-03-01T02:48:45;98553.19;;;1.29;56.62
47374;BME280;33123;50.118;10.272;2023-03-01T02:51:29;98553.19;;;1.29;56.17
47374;BME280;33123;50.118;10.272;2023-03-01T02:54:14;98541.50;;;1.25;56.65
47374;BME280;33123;50.118;10.272;2023-03-01T02:56:43;98543.09;;;1.26;56.82
47374;BME280;33123;50.118;10.272;2023-03-01T02:59:15;98534.84;;;1.22;56.70
47374;BME280;33123;50.118;10.272;2023-03-01T03:01:42;98533.69;;;1.25;56.56
47374;BME280;33123;50.118;10.272;2023-03-01T03:04:13;98531.28;;;1.23;56.55
47374;BME280;33123;50.118;10.272;2023-03-01T03:06:42;98500.66;;;1.02;57.00
47374;BME280;33123;50.118;10.272;2023-03-01T03:09:09;98528.19;;;1.20;56.74
47374;BME280;33123;50.118;10.272;2023-03-01T03:11:36;98527.25;;;1.13;56.39
47374;BME280;33123;50.118;10.272;2023-03-01T03:14:05;98527.69;;;1.16;57.09
47374;BME280;33123;50.118;10.272;2023-03-01T03:16:40;98520.91;;;1.15;56.55
47374;BME280;33123;50.118;10.272;2023-03-01T03:19:07;98512.47;;;1.13;56.63
47374;BME280;33123;50.118;10.272;2023-03-01T03:21:34;98516.84;;;1.13;56.50
47374;BME280;33123;50.118;10.272;2023-03-01T03:24:00;98518.34;;;1.07;57.08
47374;BME280;33123;50.118;10.272;2023-03-01T03:26:27;98525.63;;;1.12;56.65
47374;BME280;33123;50.118;10.272;2023-03-01T03:28:54;98523.03;;;1.12;56.38
47374;BME280;33123;50.118;10.272;2023-03-01T03:31:22;98527.41;;;1.11;56.70
47374;BME280;33123;50.118;10.272;2023-03-01T03:34:08;98530.81;;;1.12;56.59
47374;BME280;33123;50.118;10.272;2023-03-01T03:36:42;98527.91;;;1.07;56.50
47374;BME280;33123;50.118;10.272;2023-03-01T03:39:09;98521.09;;;1.05;57.15
47374;BME280;33123;50.118;10.272;2023-03-01T03:41:35;98533.41;;;1.03;56.24
47374;BME280;33123;50.118;10.272;2023-03-01T03:44:02;98526.78;;;0.93;56.21
47374;BME280;33123;50.118;10.272;2023-03-01T03:46:29;98534.88;;;0.98;57.05
47374;BME280;33123;50.118;10.272;2023-03-01T03:48:55;98531.78;;;0.94;56.77
47374;BME280;33123;50.118;10.272;2023-03-01T03:51:23;98523.84;;;0.88;57.17
47374;BME280;33123;50.118;10.272;2023-03-01T03:53:50;98534.91;;;0.90;57.10
47374;BME280;33123;50.118;10.272;2023-03-01T03:56:17;98511.38;;;0.83;56.85
47374;BME280;33123;50.118;10.272;2023-03-01T03:58:43;98523.03;;;0.87;56.77
47374;BME280;33123;50.118;10.272;2023-03-01T04:01:10;98519.81;;;0.85;57.45
47374;BME280;33123;50.118;10.272;2023-03-01T04:03:37;98518.19;;;0.84;57.67
47374;BME280;33123;50.118;10.272;2023-03-01T04:06:04;98525.00;;;0.77;57.83
47374;BME280;33123;50.118;10.272;2023-03-01T04:08:33;98519.81;;;0.77;56.96
47374;BME280;33123;50.118;10.272;2023-03-01T04:11:01;98514.63;;;0.77;57.31
47374;BME280;33123;50.118;10.272;2023-03-01T04:13:50;98526.16;;;0.74;57.29
47374;BME280;33123;50.118;10.272;2023-03-01T04:16:17;98522.75;;;0.74;56.93
47374;BME280;33123;50.118;10.272;2023-03-01T04:18:44;98530.50;;;0.66;57.18
47374;BME280;33123;50.118;10.272;2023-03-01T04:21:11;98512.38;;;0.58;57.11
47374;BME280;33123;50.118;10.272;2023-03-01T04:23:39;98525.00;;;0.61;57.65
47374;BME280;33123;50.118;10.272;2023-03-01T04:26:07;98528.59;;;0.68;57.33
47374;BME280;33123;50.118;10.272;2023-03-01T04:28:35;98527.28;;;0.64;57.79
47374;BME280;33123;50.118;10.272;2023-03-01T04:31:05;98538.47;;;0.64;57.90
47374;BME280;33123;50.118;10.272;2023-03-01T04:33:38;98534.09;;;0.65;58.04
47374;BME280;33123;50.118;10.272;2023-03-01T04:36:06;98536.84;;;0.63;57.28
47374;BME280;33123;50.118;10.272;2023-03-01T04:38:34;98535.88;;;0.64;57.78
47374;BME280;33123;50.118;10.272;2023-03-01T04:41:04;98540.88;;;0.66;57.09
47374;BME280;33123;50.118;10.272;2023-03-01T04:43:31;98540.56;;;0.61;57.38
47374;BME280;33123;50.118;10.272;2023-03-01T04:46:03;98536.34;;;0.60;57.37
47374;BME280;33123;50.118;10.272;2023-03-01T04:48:32;98486.41;;;0.25;57.10
47374;BME280;33123;50.118;10.272;2023-03-01T04:50:59;98526.13;;;0.58;57.59
47374;BME280;33123;50.118;10.272;2023-03-01T04:53:26;98519.50;;;0.56;57.80
47374;BME280;33123;50.118;10.272;2023-03-01T04:55:53;98534.09;;;0.65;57.03
47374;BME280;33123;50.118;10.272;2023-03-01T04:58:21;98527.28;;;0.64;57.37
47374;BME280;33123;50.118;10.272;2023-03-01T05:00:48;98524.84;;;0.62;57.45
47374;BME280;33123;50.118;10.272;2023-03-01T05:03:15;98519.81;;;0.61;57.20
47374;BME280;33123;50.118;10.272;2023-03-01T05:05:44;98516.09;;;0.63;57.08
47374;BME280;33123;50.118;10.272;2023-03-01T05:08:12;98516.91;;;0.64;57.55
47374;BME280;33123;50.118;10.272;2023-03-01T05:10:44;98521.09;;;0.65;57.41
47374;BME280;33123;50.118;10.272;2023-03-01T05:13:12;98515.75;;;0.66;57.08
47374;BME280;33123;50.118;10.272;2023-03-01T05:15:41;98518.22;;;0.68;58.17
47374;BME280;33123;50.118;10.272;2023-03-01T05:18:08;98512.53;;;0.64;56.96
47374;BME280;33123;50.118;10.272;2023-03-01T05:20:37;98509.75;;;0.66;57.23
47374;BME280;33123;50.118;10.272;2023-03-01T05:23:04;98508.63;;;0.60;57.49
47374;BME280;33123;50.118;10.272;2023-03-01T05:25:31;98509.94;;;0.64;57.14
47374;BME280;33123;50.118;10.272;2023-03-01T05:27:58;98505.22;;;0.60;57.64
47374;BME280;33123;50.118;10.272;2023-03-01T05:30:29;98495.19;;;0.57;57.74
47374;BME280;33123;50.118;10.272;2023-03-01T05:32:58;98495.16;;;0.65;57.79
47374;BME280;33123;50.118;10.272;2023-03-01T05:35:24;98501.03;;;0.67;57.27
47374;BME280;33123;50.118;10.272;2023-03-01T05:37:51;98490.31;;;0.62;57.61
47374;BME280;33123;50.118;10.272;2023-03-01T05:40:19;98499.06;;;0.61;57.74
47374;BME280;33123;50.118;10.272;2023-03-01T05:42:48;98484.47;;;0.60;57.44
47374;BME280;33123;50.118;10.272;2023-03-01T05:45:16;98492.91;;;0.62;58.06
47374;BME280;33123;50.118;10.272;2023-03-01T05:47:44;98495.50;;;0.62;56.81
47374;BME280;33123;50.118;10.272;2023-03-01T05:50:14;98496.94;;;0.64;57.28
47374;BME280;33123;50.118;10.272;2023-03-01T05:52:44;98494.19;;;0.66;57.52
47374;BME280;33123;50.118;10.272;2023-03-01T05:55:11;98486.09;;;0.69;56.54
47374;BME280;33123;50.118;10.272;2023-03-01T05:57:38;98493.88;;;0.69;56.80
47374;BME280;33123;50.118;10.272;2023-03-01T06:00:06;98382.09;;;0.07;57.41
47374;BME280;33123;50.118;10.272;2023-03-01T06:02:33;98455.28;;;0.49;56.64
47374;BME280;33123;50.118;10.272;2023-03-01T06:04:59;98488.22;;;0.73;56.09
47374;BME280;33123;50.118;10.272;2023-03-01T06:07:28;98481.53;;;0.71;56.23
47374;BME280;33123;50.118;10.272;2023-03-01T06:09:54;98482.53;;;0.70;56.72
47374;BME280;33123;50.118;10.272;2023-03-01T06:12:21;98497.59;;;0.74;56.41
47374;BME280;33123;50.118;10.272;2023-03-01T06:14:48;98495.00;;;0.74;56.41
47374;BME280;33123;50.118;10.272;2023-03-01T06:17:14;98488.84;;;0.75;56.79
47374;BME280;33123;50.118;10.272;2023-03-01T06:19:41;98488.03;;;0.75;56.23
47374;BME280;33123;50.118;10.272;2023-03-01T06:22:07;98496.31;;;0.78;56.12
47374;BME280;33123;50.118;10.272;2023-03-01T06:24:35;98484.94;;;0.79;56.39
47374;BME280;33123;50.118;10.272;2023-03-01T06:27:02;98463.22;;;0.64;56.65
47374;BME280;33123;50.118;10.272;2023-03-01T06:29:29;98487.69;;;0.86;55.72
47374;BME280;33123;50.118;10.272;2023-03-01T06:31:56;98481.06;;;0.84;56.01
47374;BME280;33123;50.118;10.272;2023-03-01T06:34:23;98487.06;;;0.84;55.88
47374;BME280;33123;50.118;10.272;2023-03-01T06:36:49;98493.53;;;0.88;55.69
47374;BME280;33123;50.118;10.272;2023-03-01T06:39:16;98490.28;;;0.86;56.29
47374;BME280;33123;50.118;10.272;2023-03-01T06:41:45;98493.03;;;0.93;55.72
47374;BME280;33123;50.118;10.272;2023-03-01T06:44:12;98495.47;;;0.94;56.09
47374;BME280;33123;50.118;10.272;2023-03-01T06:46:39;98465.97;;;0.79;55.86
47374;BME280;33123;50.118;10.272;2023-03-01T06:49:06;98499.91;;;1.33;55.68
47374;BME280;33123;50.118;10.272;2023-03-01T06:51:35;98492.09;;;1.80;55.17
47374;BME280;33123;50.118;10.272;2023-03-01T06:54:02;98488.34;;;2.37;53.49
47374;BME280;33123;50.118;10.272;2023-03-01T06:56:29;98484.00;;;2.90;51.93
47374;BME280;33123;50.118;10.272;2023-03-01T06:58:57;98486.44;;;3.36;50.43
47374;BME280;33123;50.118;10.272;2023-03-01T07:01:24;98493.41;;;3.80;49.37
47374;BME280;33123;50.118;10.272;2023-03-01T07:03:51;98492.97;;;4.12;48.29
47374;BME280;33123;50.118;10.272;2023-03-01T07:06:18;98490.94;;;4.50;47.36
47374;BME280;33123;50.118;10.272;2023-03-01T07:08:44;98473.88;;;4.76;47.08
47374;BME280;33123;50.118;10.272;2023-03-01T07:11:11;98468.97;;;5.22;45.82
47374;BME280;33123;50.118;10.272;2023-03-01T07:13:38;98477.59;;;5.57;44.47
47374;BME280;33123;50.118;10.272;2023-03-01T07:16:07;98478.72;;;5.90;44.02
47374;BME280;33123;50.118;10.272;2023-03-01T07:18:34;98483.88;;;6.18;43.72
47374;BME280;33123;50.118;10.272;2023-03-01T07:21:04;98489.75;;;6.40;42.76
47374;BME280;33123;50.118;10.272;2023-03-01T07:23:31;98479.69;;;6.56;41.79
47374;BME280;33123;50.118;10.272;2023-03-01T07:25:57;98480.72;;;6.88;41.94
47374;BME280;33123;50.118;10.272;2023-03-01T07:28:24;98472.63;;;7.17;41.43
47374;BME280;33123;50.118;10.272;2023-03-01T07:30:53;98471.91;;;7.48;41.10
47374;BME280;33123;50.118;10.272;2023-03-01T07:33:22;98467.28;;;7.50;39.94
47374;BME280;33123;50.118;10.272;2023-03-01T07:35:48;98464.00;;;7.61;40.28
47374;BME280;33123;50.118;10.272;2023-03-01T07:38:21;98468.19;;;7.75;39.60
47374;BME280;33123;50.118;10.272;2023-03-01T07:40:48;98475.94;;;8.02;39.93
47374;BME280;33123;50.118;10.272;2023-03-01T07:43:15;98473.84;;;8.17;38.60
47374;BME280;33123;50.118;10.272;2023-03-01T07:45:41;98473.97;;;8.29;37.84
47374;BME280;33123;50.118;10.272;2023-03-01T07:48:08;98467.72;;;8.61;38.18
47374;BME280;33123;50.118;10.272;2023-03-01T07:50:36;98469.59;;;8.79;37.70
47374;BME280;33123;50.118;10.272;2023-03-01T07:53:02;98472.84;;;8.99;37.14
47374;BME280;33123;50.118;10.272;2023-03-01T07:55:30;98467.63;;;9.18;36.53
47374;BME280;33123;50.118;10.272;2023-03-01T07:57:56;98473.19;;;9.46;36.79
47374;BME280;33123;50.118;10.272;2023-03-01T08:00:23;98468.78;;;9.40;36.16
47374;BME280;33123;50.118;10.272;2023-03-01T08:02:49;98462.50;;;9.78;36.46
47374;BME280;33123;50.118;10.272;2023-03-01T08:05:16;98455.84;;;10.05;35.56
47374;BME280;33123;50.118;10.272;2023-03-01T08:07:44;98456.31;;;10.14;34.91
47374;BME280;33123;50.118;10.272;2023-03-01T08:10:11;98457.91;;;10.34;34.96
47374;BME280;33123;50.118;10.272;2023-03-01T08:12:37;98448.59;;;10.73;34.66
47374;BME280;33123;50.118;10.272;2023-03-01T08:15:05;98446.06;;;10.78;33.99
47374;BME280;33123;50.118;10.272;2023-03-01T08:17:32;98437.69;;;10.81;33.70
47374;BME280;33123;50.118;10.272;2023-03-01T08:19:58;98441.94;;;11.05;33.82
47374;BME280;33123;50.118;10.272;2023-03-01T08:22:25;98445.50;;;11.23;33.69
47374;BME280;33123;50.118;10.272;2023-03-01T08:24:53;98438.91;;;11.37;33.01
47374;BME280;33123;50.118;10.272;2023-03-01T08:27:21;98434.44;;;11.26;32.73
47374;BME280;33123;50.118;10.272;2023-03-01T08:29:47;98439.38;;;11.34;32.65
47374;BME280;33123;50.118;10.272;2023-03-01T08:32:14;98442.19;;;11.68;32.55
47374;BME280;33123;50.118;10.272;2023-03-01T08:34:40;98436.34;;;11.54;32.52
47374;BME280;33123;50.118;10.272;2023-03-01T08:37:07;98446.47;;;11.97;31.46
47374;BME280;33123;50.118;10.272;2023-03-01T08:39:35;98438.13;;;11.88;31.84
47374;BME280;33123;50.118;10.272;2023-03-01T08:42:03;98441.16;;;11.97;30.98
47374;BME280;33123;50.118;10.272;2023-03-01T08:44:30;98444.22;;;11.89;30.87
47374;BME280;33123;50.118;10.272;2023-03-01T08:46:57;98441.03;;;11.12;31.75
47374;BME280;33123;50.118;10.272;2023-03-01T08:49:25;98435.66;;;10.83;31.90
47374;BME280;33123;50.118;10.272;2023-03-01T08:51:52;98436.72;;;10.40;32.02
47374;BME280;33123;50.118;10.272;2023-03-01T08:54:21;98429.41;;;10.42;32.29
47374;BME280;33123;50.118;10.272;2023-03-01T08:56:48;98431.69;;;10.39;33.14
47374;BME280;33123;50.118;10.272;2023-03-01T08:59:17;98430.44;;;10.41;33.10
47374;BME280;33123;50.118;10.272;2023-03-01T09:01:44;98363.22;;;10.09;33.04
47374;BME280;33123;50.118;10.272;2023-03-01T09:04:12;98425.50;;;10.33;32.78
47374;BME280;33123;50.118;10.272;2023-03-01T09:06:39;98423.69;;;10.45;33.25
47374;BME280;33123;50.118;10.272;2023-03-01T09:09:06;98416.72;;;10.63;32.86
47374;BME280;33123;50.118;10.272;2023-03-01T09:11:34;98402.66;;;10.27;32.50
47374;BME280;33123;50.118;10.272;2023-03-01T09:14:01;98414.06;;;10.39;32.58
47374;BME280;33123;50.118;10.272;2023-03-01T09:16:32;98410.63;;;10.39;33.36
47374;BME280;33123;50.118;10.272;2023-03-01T09:19:02;98421.63;;;10.59;32.88
47374;BME280;33123;50.118;10.272;2023-03-01T09:21:29;98388.75;;;10.62;32.53
47374;BME280;33123;50.118;10.272;2023-03-01T09:23:56;98402.38;;;10.58;32.07
47374;BME280;33123;50.118;10.272;2023-03-01T09:26:23;98397.09;;;10.58;32.54
47374;BME280;33123;50.118;10.272;2023-03-01T09:28:52;98370.63;;;10.53;32.44
47374;BME280;33123;50.118;10.272;2023-03-01T09:31:20;98391.47;;;11.02;32.28
47374;BME280;33123;50.118;10.272;2023-03-01T09:33:50;98387.78;;;11.15;32.57
47374;BME280;33123;50.118;10.272;2023-03-01T09:36:20;98392.00;;;11.39;30.94
47374;BME280;33123;50.118;10.272;2023-03-01T09:38:47;98383.97;;;11.34;31.62
47374;BME280;33123;50.118;10.272;2023-03-01T09:41:34;98377.16;;;10.86;30.95
47374;BME280;33123;50.118;10.272;2023-03-01T09:44:10;98343.72;;;10.51;31.87
47374;BME280;33123;50.118;10.272;2023-03-01T09:46:42;98372.81;;;10.56;32.19
47374;BME280;33123;50.118;10.272;2023-03-01T09:49:13;98361.91;;;10.76;32.40
47374;BME280;33123;50.118;10.272;2023-03-01T09:51:45;98362.63;;;10.83;31.64
47374;BME280;33123;50.118;10.272;2023-03-01T09:54:14;98364.25;;;11.25;32.75
47374;BME280;33123;50.118;10.272;2023-03-01T09:56:46;98366.13;;;11.81;32.26
47374;BME280;33123;50.118;10.272;2023-03-01T09:59:25;98376.03;;;12.36;30.74
47374;BME280;33123;50.118;10.272;2023-03-01T10:01:58;98360.75;;;12.94;30.13
47374;BME280;33123;50.118;10.272;2023-03-01T10:04:39;98363.47;;;13.43;29.80
47374;BME280;33123;50.118;10.272;2023-03-01T10:07:20;98367.31;;;14.06;28.68
47374;BME280;33123;50.118;10.272;2023-03-01T10:09:48;98357.63;;;13.90;27.45
47374;BME280;33123;50.118;10.272;2023-03-01T10:12:17;98353.53;;;13.77;27.70
47374;BME280;33123;50.118;10.272;2023-03-01T10:14:53;98308.38;;;13.18;27.69
47374;BME280;33123;50.118;10.272;2023-03-01T10:17:27;98346.44;;;13.12;28.35
47374;BME280;33123;50.118;10.272;2023-03-01T10:20:10;98335.97;;;13.44;29.48
47374;BME280;33123;50.118;10.272;2023-03-01T10:22:40;98340.63;;;13.86;29.56
47374;BME280;33123;50.118;10.272;2023-03-01T10:25:13;98339.31;;;14.52;28.48
47374;BME280;33123;50.118;10.272;2023-03-01T10:27:46;98349.22;;;14.62;27.26
47374;BME280;33123;50.118;10.272;2023-03-01T10:30:19;98337.00;;;14.29;26.82
47374;BME280;33123;50.118;10.272;2023-03-01T10:32:49;98326.09;;;14.58;27.19
47374;BME280;33123;50.118;10.272;2023-03-01T10:35:22;98317.22;;;14.42;26.88
47374;BME280;33123;50.118;10.272;2023-03-01T10:38:04;98333.59;;;14.34;27.03
47374;BME280;33123;50.118;10.272;2023-03-01T10:40:32;98334.50;;;14.12;27.48
47374;BME280;33123;50.118;10.272;2023-03-01T10:43:00;98331.22;;;14.00;27.23
47374;BME280;33123;50.118;10.272;2023-03-01T10:45:31;98329.91;;;14.03;28.75
47374;BME280;33123;50.118;10.272;2023-03-01T10:48:08;98330.56;;;14.52;28.08
47374;BME280;33123;50.118;10.272;2023-03-01T10:50:40;98332.88;;;14.86;27.51
47374;BME280;33123;50.118;10.272;2023-03-01T10:53:23;98326.50;;;15.44;26.73
47374;BME280;33123;50.118;10.272;2023-03-01T10:56:03;98312.47;;;15.64;26.81
47374;BME280;33123;50.118;10.272;2023-03-01T10:58:31;98330.34;;;15.99;26.40
47374;BME280;33123;50.118;10.272;2023-03-01T11:01:00;98319.44;;;16.06;25.46
47374;BME280;33123;50.118;10.272;2023-03-01T11:03:29;98311.91;;;15.62;25.23
47374;BME280;33123;50.118;10.272;2023-03-01T11:06:03;98313.72;;;15.36;25.80
47374;BME280;33123;50.118;10.272;2023-03-01T11:08:41;98312.66;;;15.42;25.63
47374;BME280;33123;50.118;10.272;2023-03-01T11:11:20;98310.78;;;15.38;25.25
47374;BME280;33123;50.118;10.272;2023-03-01T11:13:58;98306.50;;;15.26;25.53
47374;BME280;33123;50.118;10.272;2023-03-01T11:16:29;98290.69;;;14.84;25.70
47374;BME280;33123;50.118;10.272;2023-03-01T11:18:59;98294.56;;;14.61;26.31
47374;BME280;33123;50.118;10.272;2023-03-01T11:21:30;98281.31;;;14.24;26.89
47374;BME280;33123;50.118;10.272;2023-03-01T11:24:00;98294.66;;;14.02;26.41
47374;BME280;33123;50.118;10.272;2023-03-01T11:26:28;98261.66;;;13.88;26.55
47374;BME280;33123;50.118;10.272;2023-03-01T11:29:02;98278.66;;;13.92;27.45
47374;BME280;33123;50.118;10.272;2023-03-01T11:31:30;98286.66;;;13.97;26.39
47374;BME280;33123;50.118;10.272;2023-03-01T11:34:05;98254.50;;;13.83;27.24
47374;BME280;33123;50.118;10.272;2023-03-01T11:36:41;98271.09;;;14.06;26.40
47374;BME280;33123;50.118;10.272;2023-03-01T11:39:21;98274.16;;;13.92;26.50
47374;BME280;33123;50.118;10.272;2023-03-01T11:42:03;98254.09;;;14.02;27.22
47374;BME280;33123;50.118;10.272;2023-03-01T11:44:34;98260.84;;;14.19;28.19
47374;BME280;33123;50.118;10.272;2023-03-01T11:47:26;98248.16;;;14.26;27.96
47374;BME280;33123;50.118;10.272;2023-03-01T11:50:12;98241.34;;;14.36;26.24
47374;BME280;33123;50.118;10.272;2023-03-01T11:52:51;98234.34;;;13.82;26.75
47374;BME280;33123;50.118;10.272;2023-03-01T11:55:36;98225.41;;;13.56;26.87
47374;BME280;33123;50.118;10.272;2023-03-01T11:58:25;98232.78;;;13.54;26.98
47374;BME280;33123;50.118;10.272;2023-03-01T12:01:14;98238.44;;;13.36;27.15
47374;BME280;33123;50.118;10.272;2023-03-01T12:03:54;98228.66;;;13.14;27.06
47374;BME280;33123;50.118;10.272;2023-03-01T12:06:49;98226.16;;;13.03;27.93
47374;BME280;33123;50.118;10.272;2023-03-01T12:09:31;98209.06;;;12.61;28.41
47374;BME280;33123;50.118;10.272;2023-03-01T12:12:26;98224.44;;;13.13;28.56
47374;BME280;33123;50.118;10.272;2023-03-01T12:15:24;98219.94;;;13.14;27.37
47374;BME280;33123;50.118;10.272;2023-03-01T12:18:05;98205.13;;;13.40;27.52
47374;BME280;33123;50.118;10.272;2023-03-01T12:20:39;98214.53;;;13.26;27.41
47374;BME280;33123;50.118;10.272;2023-03-01T12:23:33;98207.94;;;13.28;27.86
47374;BME280;33123;50.118;10.272;2023-03-01T12:26:10;98205.88;;;13.35;28.87
47374;BME280;33123;50.118;10.272;2023-03-01T12:28:51;98206.81;;;13.51;28.65
47374;BME280;33123;50.118;10.272;2023-03-01T12:37:33;98190.28;;;13.71;28.38
47374;BME280;33123;50.118;10.272;2023-03-01T12:40:26;98185.31;;;13.80;28.97
47374;BME280;33123;50.118;10.272;2023-03-01T12:43:09;98190.16;;;13.93;28.27
47374;BME280;33123;50.118;10.272;2023-03-01T12:45:47;98181.31;;;14.19;28.10
47374;BME280;33123;50.118;10.272;2023-03-01T12:48:31;98180.88;;;14.33;27.83
47374;BME280;33123;50.118;10.272;2023-03-01T12:51:04;98168.28;;;14.55;28.31
47374;BME280;33123;50.118;10.272;2023-03-01T12:53:36;98170.41;;;14.63;27.20
47374;BME280;33123;50.118;10.272;2023-03-01T12:56:06;98159.00;;;14.63;27.06
47374;BME280;33123;50.118;10.272;2023-03-01T12:58:40;98140.13;;;14.54;27.22
47374;BME280;33123;50.118;10.272;2023-03-01T13:01:16;98162.16;;;14.02;26.90
47374;BME280;33123;50.118;10.272;2023-03-01T13:04:05;98149.28;;;13.79;27.63
47374;BME280;33123;50.118;10.272;2023-03-01T13:06:37;98159.78;;;13.63;28.27
47374;BME280;33123;50.118;10.272;2023-03-01T13:09:14;98157.97;;;13.37;28.16
47374;BME280;33123;50.118;10.272;2023-03-01T13:11:46;98155.53;;;13.03;28.42
47374;BME280;33123;50.118;10.272;2023-03-01T13:14:47;98146.72;;;12.71;29.20
47374;BME280;33123;50.118;10.272;2023-03-01T13:17:32;98146.94;;;12.42;29.11